ENHF

Hammerfest Airport

Hammerfest, Norway
METAR ENHF 160120Z AUTO 00000KT 9999 NCD M01/M04 Q1021 RMK WIND 1254FT 21007KT
Observed Flight Rules
Dec-16 @ 01:20 UTC (14 minutes ago) Visual Flight Rules
Visibility Clouds
10,000+ meters
  • Clear skies
Temperatures Readings
Current -1°C / 30°F
Dewpoint -4°C / 25°F
Humidity 80%
Altimeter 30.15" Hg
Pressure 1021 hPa
Elevation 81
METAR ENHF 160120Z AUTO 00000KT 9999 NCD M01/M04 Q1021 RMK WIND 1254FT 21007KT
Observed Flight Rules
Dec-16 @ 01:20 UTC
(14 minutes ago)
VFR
Clouds
  • Clear skies
Temperature Dewpoint
-1°C / 30°F -4°C / 25°F
Humidity Altimeter Pressure
80% 30.15" Hg 1021 hPa